sensor_id;sensor_type;location;lat;lon;timestamp;pressure;altitude;pressure_sealevel;temperature;humidity
71465;BME280;59274;49.874;9.154;2023-02-17T00:00:50;101158.47;;;6.99;100.00
71465;BME280;59274;49.874;9.154;2023-02-17T00:03:16;101152.34;;;7.11;100.00
71465;BME280;59274;49.874;9.154;2023-02-17T00:05:41;101156.78;;;7.15;100.00
71465;BME280;59274;49.874;9.154;2023-02-17T00:08:07;101149.63;;;7.19;100.00
71465;BME280;59274;49.874;9.154;2023-02-17T00:10:32;101156.75;;;7.24;100.00
71465;BME280;59274;49.874;9.154;2023-02-17T00:12:57;101152.75;;;7.30;100.00
71465;BME280;59274;49.874;9.154;2023-02-17T00:15:23;101157.69;;;7.28;100.00
71465;BME280;59274;49.874;9.154;2023-02-17T00:17:48;101152.16;;;7.45;100.00
71465;BME280;59274;49.874;9.154;2023-02-17T00:20:13;101154.34;;;7.52;100.00
71465;BME280;59274;49.874;9.154;2023-02-17T00:22:39;101149.59;;;7.48;100.00
71465;BME280;59274;49.874;9.154;2023-02-17T00:25:05;101145.78;;;7.50;100.00
71465;BME280;59274;49.874;9.154;2023-02-17T00:27:30;101144.59;;;7.59;100.00
71465;BME280;59274;49.874;9.154;2023-02-17T00:29:55;101144.78;;;7.75;100.00
71465;BME280;59274;49.874;9.154;2023-02-17T00:32:21;101145.13;;;7.73;100.00
71465;BME280;59274;49.874;9.154;2023-02-17T00:34:46;101144.13;;;7.78;100.00
71465;BME280;59274;49.874;9.154;2023-02-17T00:37:12;101137.06;;;7.85;100.00
71465;BME280;59274;49.874;9.154;2023-02-17T00:39:37;101147.94;;;7.98;100.00
71465;BME280;59274;49.874;9.154;2023-02-17T00:42:02;101146.28;;;8.05;100.00
71465;BME280;59274;49.874;9.154;2023-02-17T00:44:28;101147.09;;;8.18;100.00
71465;BME280;59274;49.874;9.154;2023-02-17T00:46:53;101132.59;;;8.22;100.00
71465;BME280;59274;49.874;9.154;2023-02-17T00:49:21;101133.75;;;8.01;100.00
71465;BME280;59274;49.874;9.154;2023-02-17T00:51:48;101142.25;;;7.91;100.00
71465;BME280;59274;49.874;9.154;2023-02-17T00:54:14;101136.28;;;7.85;100.00
71465;BME280;59274;49.874;9.154;2023-02-17T00:56:40;101140.41;;;7.82;100.00
71465;BME280;59274;49.874;9.154;2023-02-17T00:59:05;101133.44;;;7.81;100.00
71465;BME280;59274;49.874;9.154;2023-02-17T01:01:32;101129.41;;;7.88;100.00
71465;BME280;59274;49.874;9.154;2023-02-17T01:03:57;101131.84;;;8.01;100.00
71465;BME280;59274;49.874;9.154;2023-02-17T01:06:29;101132.09;;;8.08;100.00
71465;BME280;59274;49.874;9.154;2023-02-17T01:08:55;101135.72;;;7.92;100.00
71465;BME280;59274;49.874;9.154;2023-02-17T01:11:23;101135.19;;;7.98;100.00
71465;BME280;59274;49.874;9.154;2023-02-17T01:13:50;101135.63;;;7.88;100.00
71465;BME280;59274;49.874;9.154;2023-02-17T01:16:18;101146.22;;;7.93;100.00
71465;BME280;59274;49.874;9.154;2023-02-17T01:18:44;101134.47;;;7.89;100.00
71465;BME280;59274;49.874;9.154;2023-02-17T01:21:24;101140.41;;;7.82;100.00
71465;BME280;59274;49.874;9.154;2023-02-17T01:23:51;101142.78;;;7.84;100.00
71465;BME280;59274;49.874;9.154;2023-02-17T01:26:20;101141.69;;;7.85;100.00
71465;BME280;59274;49.874;9.154;2023-02-17T01:28:47;101137.59;;;7.79;100.00
71465;BME280;59274;49.874;9.154;2023-02-17T01:31:12;101137.81;;;7.74;100.00
71465;BME280;59274;49.874;9.154;2023-02-17T01:33:39;101141.41;;;7.78;100.00
71465;BME280;59274;49.874;9.154;2023-02-17T01:36:07;101134.44;;;7.77;100.00
71465;BME280;59274;49.874;9.154;2023-02-17T01:38:34;101139.38;;;7.75;100.00
71465;BME280;59274;49.874;9.154;2023-02-17T01:40:59;101123.41;;;7.82;100.00
71465;BME280;59274;49.874;9.154;2023-02-17T01:43:25;101123.88;;;7.84;100.00
71465;BME280;59274;49.874;9.154;2023-02-17T01:45:58;101122.63;;;7.81;100.00
71465;BME280;59274;49.874;9.154;2023-02-17T01:48:32;101124.66;;;7.84;100.00
71465;BME280;59274;49.874;9.154;2023-02-17T01:53:32;101113.31;;;7.91;100.00
71465;BME280;59274;49.874;9.154;2023-02-17T01:55:59;101107.97;;;7.82;100.00
71465;BME280;59274;49.874;9.154;2023-02-17T01:58:27;101107.66;;;7.84;100.00
71465;BME280;59274;49.874;9.154;2023-02-17T02:00:54;101102.91;;;7.81;100.00
71465;BME280;59274;49.874;9.154;2023-02-17T02:03:22;101097.63;;;7.84;100.00
71465;BME280;59274;49.874;9.154;2023-02-17T02:05:48;101098.19;;;7.90;100.00
71465;BME280;59274;49.874;9.154;2023-02-17T02:08:14;101090.31;;;7.85;100.00
71465;BME280;59274;49.874;9.154;2023-02-17T02:10:40;101089.50;;;7.84;100.00
71465;BME280;59274;49.874;9.154;2023-02-17T02:13:06;101094.06;;;7.93;100.00
71465;BME280;59274;49.874;9.154;2023-02-17T02:16:13;101092.00;;;7.90;100.00
71465;BME280;59274;49.874;9.154;2023-02-17T02:29:59;101082.84;;;7.82;100.00
71465;BME280;59274;49.874;9.154;2023-02-17T02:37:55;101068.16;;;8.61;100.00
71465;BME280;59274;49.874;9.154;2023-02-17T02:40:27;101065.09;;;8.99;100.00
71465;BME280;59274;49.874;9.154;2023-02-17T02:42:53;101058.22;;;9.01;100.00
71465;BME280;59274;49.874;9.154;2023-02-17T02:45:20;101060.44;;;9.12;100.00
71465;BME280;59274;49.874;9.154;2023-02-17T02:50:18;101050.50;;;9.16;100.00
71465;BME280;59274;49.874;9.154;2023-02-17T02:55:33;101042.38;;;9.16;100.00
71465;BME280;59274;49.874;9.154;2023-02-17T03:01:10;101037.19;;;9.11;100.00
71465;BME280;59274;49.874;9.154;2023-02-17T03:03:58;101035.59;;;9.10;100.00
71465;BME280;59274;49.874;9.154;2023-02-17T03:06:33;101037.50;;;9.21;100.00
71465;BME280;59274;49.874;9.154;2023-02-17T03:09:12;101035.47;;;9.18;100.00
71465;BME280;59274;49.874;9.154;2023-02-17T03:11:40;101032.53;;;9.23;100.00
71465;BME280;59274;49.874;9.154;2023-02-17T03:14:11;101042.13;;;9.21;100.00
71465;BME280;59274;49.874;9.154;2023-02-17T03:16:40;101026.34;;;9.23;100.00
71465;BME280;59274;49.874;9.154;2023-02-17T03:19:06;101030.25;;;9.25;100.00
71465;BME280;59274;49.874;9.154;2023-02-17T03:22:29;101025.19;;;9.24;100.00
71465;BME280;59274;49.874;9.154;2023-02-17T03:24:27;101027.25;;;9.15;100.00
71465;BME280;59274;49.874;9.154;2023-02-17T03:26:52;101028.94;;;9.19;100.00
71465;BME280;59274;49.874;9.154;2023-02-17T03:29:18;101031.09;;;9.14;100.00
71465;BME280;59274;49.874;9.154;2023-02-17T03:31:43;101018.91;;;9.08;100.00
71465;BME280;59274;49.874;9.154;2023-02-17T03:34:08;101025.13;;;8.96;100.00
71465;BME280;59274;49.874;9.154;2023-02-17T03:36:34;101018.13;;;9.07;100.00
71465;BME280;59274;49.874;9.154;2023-02-17T03:38:59;101008.50;;;9.10;100.00
71465;BME280;59274;49.874;9.154;2023-02-17T03:41:25;101014.53;;;8.91;100.00
71465;BME280;59274;49.874;9.154;2023-02-17T03:43:50;101009.94;;;8.79;100.00
71465;BME280;59274;49.874;9.154;2023-02-17T03:46:16;101009.81;;;8.76;100.00
71465;BME280;59274;49.874;9.154;2023-02-17T03:48:43;101007.66;;;8.81;100.00
71465;BME280;59274;49.874;9.154;2023-02-17T03:51:10;101009.25;;;8.82;100.00
71465;BME280;59274;49.874;9.154;2023-02-17T03:53:37;101003.16;;;8.85;100.00
71465;BME280;59274;49.874;9.154;2023-02-17T03:56:02;101009.91;;;8.91;100.00
71465;BME280;59274;49.874;9.154;2023-02-17T03:58:28;101010.72;;;8.80;100.00
71465;BME280;59274;49.874;9.154;2023-02-17T04:00:53;101002.38;;;8.85;100.00
71465;BME280;59274;49.874;9.154;2023-02-17T04:03:18;101003.94;;;8.86;100.00
71465;BME280;59274;49.874;9.154;2023-02-17T04:05:44;101010.81;;;8.83;100.00
71465;BME280;59274;49.874;9.154;2023-02-17T04:08:09;101011.16;;;8.82;100.00
71465;BME280;59274;49.874;9.154;2023-02-17T04:10:35;101014.00;;;8.85;100.00
71465;BME280;59274;49.874;9.154;2023-02-17T04:13:00;101013.78;;;8.78;100.00
71465;BME280;59274;49.874;9.154;2023-02-17T04:15:25;101015.03;;;8.81;100.00
71465;BME280;59274;49.874;9.154;2023-02-17T04:17:51;101018.28;;;8.86;100.00
71465;BME280;59274;49.874;9.154;2023-02-17T04:20:16;101017.72;;;8.81;100.00
71465;BME280;59274;49.874;9.154;2023-02-17T04:22:42;101022.56;;;8.87;100.00
71465;BME280;59274;49.874;9.154;2023-02-17T04:25:07;101023.47;;;8.91;100.00
71465;BME280;59274;49.874;9.154;2023-02-17T04:27:33;101020.53;;;8.84;100.00
71465;BME280;59274;49.874;9.154;2023-02-17T04:29:58;101036.78;;;8.84;100.00
71465;BME280;59274;49.874;9.154;2023-02-17T04:32:23;101036.69;;;8.81;100.00
71465;BME280;59274;49.874;9.154;2023-02-17T04:34:49;101037.25;;;8.86;100.00
71465;BME280;59274;49.874;9.154;2023-02-17T04:37:14;101030.25;;;8.85;100.00
71465;BME280;59274;49.874;9.154;2023-02-17T04:39:40;101033.03;;;8.89;100.00
71465;BME280;59274;49.874;9.154;2023-02-17T04:42:05;101031.59;;;8.91;100.00
71465;BME280;59274;49.874;9.154;2023-02-17T04:44:31;101032.25;;;8.88;100.00
71465;BME280;59274;49.874;9.154;2023-02-17T04:46:56;101040.03;;;8.90;100.00
71465;BME280;59274;49.874;9.154;2023-02-17T04:49:21;101036.34;;;8.94;100.00
71465;BME280;59274;49.874;9.154;2023-02-17T04:51:47;101035.19;;;8.95;100.00
71465;BME280;59274;49.874;9.154;2023-02-17T04:54:12;101033.03;;;9.01;100.00
71465;BME280;59274;49.874;9.154;2023-02-17T04:56:38;101040.59;;;9.08;100.00
71465;BME280;59274;49.874;9.154;2023-02-17T04:59:03;101037.44;;;9.06;100.00
71465;BME280;59274;49.874;9.154;2023-02-17T05:01:28;101038.97;;;9.19;100.00
71465;BME280;59274;49.874;9.154;2023-02-17T05:03:54;101026.56;;;9.18;100.00
71465;BME280;59274;49.874;9.154;2023-02-17T05:06:19;101027.81;;;9.20;100.00
71465;BME280;59274;49.874;9.154;2023-02-17T05:08:44;101032.28;;;9.28;100.00
71465;BME280;59274;49.874;9.154;2023-02-17T05:11:12;101025.50;;;9.34;100.00
71465;BME280;59274;49.874;9.154;2023-02-17T05:13:38;101033.97;;;9.33;100.00
71465;BME280;59274;49.874;9.154;2023-02-17T05:16:03;101035.41;;;9.42;100.00
71465;BME280;59274;49.874;9.154;2023-02-17T05:18:29;101037.66;;;9.40;100.00
71465;BME280;59274;49.874;9.154;2023-02-17T05:20:54;101030.59;;;9.24;100.00
71465;BME280;59274;49.874;9.154;2023-02-17T05:23:20;101029.44;;;9.37;100.00
71465;BME280;59274;49.874;9.154;2023-02-17T05:25:45;101023.25;;;9.36;100.00
71465;BME280;59274;49.874;9.154;2023-02-17T05:28:11;101027.97;;;9.39;100.00
71465;BME280;59274;49.874;9.154;2023-02-17T05:30:36;101029.78;;;9.35;100.00
71465;BME280;59274;49.874;9.154;2023-02-17T05:33:01;101031.91;;;9.42;100.00
71465;BME280;59274;49.874;9.154;2023-02-17T05:35:27;101032.44;;;9.48;100.00
71465;BME280;59274;49.874;9.154;2023-02-17T05:37:52;101023.53;;;9.47;100.00
71465;BME280;59274;49.874;9.154;2023-02-17T05:40:18;101024.91;;;9.41;100.00
71465;BME280;59274;49.874;9.154;2023-02-17T05:42:43;101014.06;;;9.41;100.00
71465;BME280;59274;49.874;9.154;2023-02-17T05:45:09;101019.22;;;9.46;100.00
71465;BME280;59274;49.874;9.154;2023-02-17T05:47:35;101014.94;;;9.45;100.00
71465;BME280;59274;49.874;9.154;2023-02-17T05:50:01;101010.09;;;9.51;100.00
71465;BME280;59274;49.874;9.154;2023-02-17T05:52:27;101010.75;;;9.48;100.00
71465;BME280;59274;49.874;9.154;2023-02-17T05:54:52;101016.63;;;9.50;100.00
71465;BME280;59274;49.874;9.154;2023-02-17T05:57:17;101013.38;;;9.44;100.00
71465;BME280;59274;49.874;9.154;2023-02-17T05:59:43;101009.97;;;9.47;100.00
71465;BME280;59274;49.874;9.154;2023-02-17T06:02:08;101020.81;;;9.47;100.00
71465;BME280;59274;49.874;9.154;2023-02-17T06:04:34;101026.69;;;9.49;100.00
71465;BME280;59274;49.874;9.154;2023-02-17T06:06:59;101024.16;;;9.56;100.00
71465;BME280;59274;49.874;9.154;2023-02-17T06:09:25;101034.97;;;9.68;100.00
71465;BME280;59274;49.874;9.154;2023-02-17T06:11:50;101031.22;;;9.73;100.00
71465;BME280;59274;49.874;9.154;2023-02-17T06:14:16;101025.69;;;9.69;100.00
71465;BME280;59274;49.874;9.154;2023-02-17T06:16:41;101033.28;;;9.64;100.00
71465;BME280;59274;49.874;9.154;2023-02-17T06:19:07;101031.03;;;9.66;100.00
71465;BME280;59274;49.874;9.154;2023-02-17T06:21:32;101041.69;;;9.74;100.00
71465;BME280;59274;49.874;9.154;2023-02-17T06:23:57;101034.69;;;9.73;100.00
71465;BME280;59274;49.874;9.154;2023-02-17T06:26:23;101040.13;;;9.73;100.00
71465;BME280;59274;49.874;9.154;2023-02-17T06:28:48;101029.66;;;9.72;100.00
71465;BME280;59274;49.874;9.154;2023-02-17T06:31:14;101020.25;;;9.69;100.00
71465;BME280;59274;49.874;9.154;2023-02-17T06:33:39;101025.44;;;9.74;100.00
71465;BME280;59274;49.874;9.154;2023-02-17T06:36:05;101026.81;;;9.68;100.00
71465;BME280;59274;49.874;9.154;2023-02-17T06:38:31;101027.28;;;9.70;100.00
71465;BME280;59274;49.874;9.154;2023-02-17T06:40:56;101032.44;;;9.75;100.00
71465;BME280;59274;49.874;9.154;2023-02-17T06:43:21;101035.94;;;9.76;100.00
71465;BME280;59274;49.874;9.154;2023-02-17T06:45:47;101019.78;;;9.79;100.00
71465;BME280;59274;49.874;9.154;2023-02-17T06:48:12;101019.78;;;9.79;100.00
71465;BME280;59274;49.874;9.154;2023-02-17T06:50:38;101023.47;;;9.87;100.00
71465;BME280;59274;49.874;9.154;2023-02-17T06:53:04;101011.38;;;9.85;100.00
71465;BME280;59274;49.874;9.154;2023-02-17T06:55:29;101022.91;;;9.81;100.00
71465;BME280;59274;49.874;9.154;2023-02-17T06:57:55;101022.13;;;9.81;100.00
71465;BME280;59274;49.874;9.154;2023-02-17T07:00:21;101035.09;;;9.88;100.00
71465;BME280;59274;49.874;9.154;2023-02-17T07:02:46;101038.50;;;9.85;100.00
71465;BME280;59274;49.874;9.154;2023-02-17T07:05:12;101042.78;;;9.86;100.00
71465;BME280;59274;49.874;9.154;2023-02-17T07:07:38;101045.59;;;9.89;100.00
71465;BME280;59274;49.874;9.154;2023-02-17T07:10:03;101054.63;;;9.93;100.00
71465;BME280;59274;49.874;9.154;2023-02-17T07:12:29;101056.56;;;9.93;100.00
71465;BME280;59274;49.874;9.154;2023-02-17T07:14:55;101059.59;;;9.91;100.00
71465;BME280;59274;49.874;9.154;2023-02-17T07:17:20;101064.25;;;9.91;100.00
71465;BME280;59274;49.874;9.154;2023-02-17T07:19:46;101067.41;;;9.93;100.00
71465;BME280;59274;49.874;9.154;2023-02-17T07:22:11;101068.63;;;9.95;100.00
71465;BME280;59274;49.874;9.154;2023-02-17T07:24:37;101077.91;;;9.94;100.00
71465;BME280;59274;49.874;9.154;2023-02-17T07:27:04;101076.69;;;9.92;100.00
71465;BME280;59274;49.874;9.154;2023-02-17T07:29:30;101073.06;;;9.88;100.00
71465;BME280;59274;49.874;9.154;2023-02-17T07:31:55;101065.03;;;9.91;100.00
71465;BME280;59274;49.874;9.154;2023-02-17T07:34:20;101081.41;;;9.95;100.00
71465;BME280;59274;49.874;9.154;2023-02-17T07:36:46;101078.94;;;9.90;100.00
71465;BME280;59274;49.874;9.154;2023-02-17T07:39:11;101077.72;;;9.87;100.00
71465;BME280;59274;49.874;9.154;2023-02-17T07:41:37;101079.66;;;9.87;100.00
71465;BME280;59274;49.874;9.154;2023-02-17T07:44:02;101081.56;;;9.86;100.00
71465;BME280;59274;49.874;9.154;2023-02-17T07:46:29;101075.59;;;9.80;100.00
71465;BME280;59274;49.874;9.154;2023-02-17T07:48:56;101078.22;;;9.77;100.00
71465;BME280;59274;49.874;9.154;2023-02-17T07:51:22;101070.16;;;9.80;100.00
71465;BME280;59274;49.874;9.154;2023-02-17T07:53:49;101065.09;;;9.79;100.00
71465;BME280;59274;49.874;9.154;2023-02-17T07:56:16;101074.91;;;9.83;100.00
71465;BME280;59274;49.874;9.154;2023-02-17T07:58:43;101078.56;;;9.75;100.00
71465;BME280;59274;49.874;9.154;2023-02-17T08:01:15;101068.50;;;9.76;100.00
71465;BME280;59274;49.874;9.154;2023-02-17T08:03:41;101068.94;;;9.78;100.00
71465;BME280;59274;49.874;9.154;2023-02-17T08:06:13;101068.09;;;9.90;100.00
71465;BME280;59274;49.874;9.154;2023-02-17T08:08:39;101070.25;;;9.84;100.00
71465;BME280;59274;49.874;9.154;2023-02-17T08:11:23;101072.63;;;9.86;100.00
71465;BME280;59274;49.874;9.154;2023-02-17T08:14:07;101080.34;;;9.83;100.00
71465;BME280;59274;49.874;9.154;2023-02-17T08:16:33;101076.81;;;9.83;100.00
71465;BME280;59274;49.874;9.154;2023-02-17T08:18:58;101086.81;;;9.79;100.00
71465;BME280;59274;49.874;9.154;2023-02-17T08:21:25;101093.88;;;9.83;100.00
71465;BME280;59274;49.874;9.154;2023-02-17T08:23:51;101074.13;;;9.83;100.00
71465;BME280;59274;49.874;9.154;2023-02-17T08:26:17;101085.31;;;9.81;100.00
71465;BME280;59274;49.874;9.154;2023-02-17T08:28:43;101079.66;;;9.87;100.00
71465;BME280;59274;49.874;9.154;2023-02-17T08:33:40;101071.94;;;9.89;100.00
71465;BME280;59274;49.874;9.154;2023-02-17T08:36:06;101069.78;;;9.94;100.00
71465;BME280;59274;49.874;9.154;2023-02-17T08:38:33;101070.34;;;9.88;100.00
71465;BME280;59274;49.874;9.154;2023-02-17T08:40:59;101069.59;;;9.87;100.00
71465;BME280;59274;49.874;9.154;2023-02-17T08:43:24;101075.69;;;9.84;100.00
71465;BME280;59274;49.874;9.154;2023-02-17T08:45:50;101071.25;;;9.92;100.00
71465;BME280;59274;49.874;9.154;2023-02-17T08:48:15;101064.44;;;9.98;100.00
71465;BME280;59274;49.874;9.154;2023-02-17T08:50:41;101071.53;;;10.02;100.00
71465;BME280;59274;49.874;9.154;2023-02-17T08:53:06;101075.91;;;10.07;100.00
71465;BME280;59274;49.874;9.154;2023-02-17T08:55:33;101070.22;;;10.12;100.00
71465;BME280;59274;49.874;9.154;2023-02-17T08:57:59;101060.16;;;10.12;100.00
71465;BME280;59274;49.874;9.154;2023-02-17T09:00:24;101061.03;;;10.16;100.00
71465;BME280;59274;49.874;9.154;2023-02-17T09:02:50;101066.72;;;10.11;100.00
71465;BME280;59274;49.874;9.154;2023-02-17T09:05:15;101070.44;;;10.19;100.00
71465;BME280;59274;49.874;9.154;2023-02-17T09:07:41;101061.16;;;10.20;100.00
71465;BME280;59274;49.874;9.154;2023-02-17T09:10:08;101072.38;;;10.18;100.00
71465;BME280;59274;49.874;9.154;2023-02-17T09:12:34;101060.38;;;10.19;100.00
71465;BME280;59274;49.874;9.154;2023-02-17T09:14:59;101070.63;;;10.26;100.00
71465;BME280;59274;49.874;9.154;2023-02-17T09:17:25;101057.50;;;10.28;100.00
71465;BME280;59274;49.874;9.154;2023-02-17T09:19:50;101066.06;;;10.30;100.00
71465;BME280;59274;49.874;9.154;2023-02-17T09:22:16;101062.94;;;10.28;100.00
71465;BME280;59274;49.874;9.154;2023-02-17T09:24:43;101061.81;;;10.29;100.00
71465;BME280;59274;49.874;9.154;2023-02-17T09:27:09;101057.34;;;10.37;100.00
71465;BME280;59274;49.874;9.154;2023-02-17T09:29:37;101067.59;;;10.43;100.00
71465;BME280;59274;49.874;9.154;2023-02-17T09:32:07;101054.19;;;10.50;100.00
71465;BME280;59274;49.874;9.154;2023-02-17T09:34:36;101055.22;;;10.62;100.00
71465;BME280;59274;49.874;9.154;2023-02-17T09:37:03;101055.94;;;10.58;100.00
71465;BME280;59274;49.874;9.154;2023-02-17T09:39:28;101057.75;;;10.70;100.00
71465;BME280;59274;49.874;9.154;2023-02-17T09:41:54;101052.16;;;10.63;100.00
71465;BME280;59274;49.874;9.154;2023-02-17T09:44:25;101053.38;;;10.66;100.00
71465;BME280;59274;49.874;9.154;2023-02-17T09:47:10;101056.78;;;10.63;100.00
71465;BME280;59274;49.874;9.154;2023-02-17T09:49:53;101053.28;;;10.62;100.00
71465;BME280;59274;49.874;9.154;2023-02-17T09:52:27;101056.91;;;10.50;100.00
71465;BME280;59274;49.874;9.154;2023-02-17T09:55:05;101052.06;;;10.59;100.00
71465;BME280;59274;49.874;9.154;2023-02-17T09:57:42;101062.66;;;10.65;100.00
71465;BME280;59274;49.874;9.154;2023-02-17T10:00:14;101061.88;;;10.80;100.00
71465;BME280;59274;49.874;9.154;2023-02-17T10:05:15;101061.59;;;10.85;100.00
71465;BME280;59274;49.874;9.154;2023-02-17T10:07:53;101071.38;;;10.89;100.00
71465;BME280;59274;49.874;9.154;2023-02-17T10:10:29;101065.94;;;10.89;100.00
71465;BME280;59274;49.874;9.154;2023-02-17T10:12:59;101070.91;;;11.03;100.00
71465;BME280;59274;49.874;9.154;2023-02-17T10:15:29;101071.22;;;11.17;100.00
71465;BME280;59274;49.874;9.154;2023-02-17T10:23:33;101075.94;;;11.01;100.00
71465;BME280;59274;49.874;9.154;2023-02-17T10:28:54;101086.44;;;11.03;100.00
71465;BME280;59274;49.874;9.154;2023-02-17T10:31:37;101079.22;;;11.10;100.00
71465;BME280;59274;49.874;9.154;2023-02-17T10:34:15;101083.25;;;11.16;100.00
71465;BME280;59274;49.874;9.154;2023-02-17T10:37:01;101082.69;;;11.07;100.00
71465;BME280;59274;49.874;9.154;2023-02-17T10:39:59;101077.78;;;10.97;100.00
71465;BME280;59274;49.874;9.154;2023-02-17T10:42:44;101092.59;;;10.99;100.00
71465;BME280;59274;49.874;9.154;2023-02-17T10:45:21;101094.34;;;11.08;100.00
71465;BME280;59274;49.874;9.154;2023-02-17T10:47:49;101093.00;;;11.02;100.00
71465;BME280;59274;49.874;9.154;2023-02-17T10:50:20;101101.50;;;11.16;100.00
71465;BME280;59274;49.874;9.154;2023-02-17T10:52:47;101102.03;;;11.21;100.00
71465;BME280;59274;49.874;9.154;2023-02-17T10:57:47;101087.19;;;11.19;100.00
71465;BME280;59274;49.874;9.154;2023-02-17T11:00:16;101075.41;;;11.30;100.00
71465;BME280;59274;49.874;9.154;2023-02-17T11:02:44;101093.13;;;11.24;100.00
71465;BME280;59274;49.874;9.154;2023-02-17T11:05:31;101090.06;;;11.26;100.00
71465;BME280;59274;49.874;9.154;2023-02-17T11:08:02;101081.78;;;11.38;100.00
71465;BME280;59274;49.874;9.154;2023-02-17T11:10:34;101089.22;;;11.41;100.00
71465;BME280;59274;49.874;9.154;2023-02-17T11:13:01;101076.56;;;11.49;100.00
71465;BME280;59274;49.874;9.154;2023-02-17T11:15:35;101084.78;;;11.52;100.00
71465;BME280;59274;49.874;9.154;2023-02-17T11:18:09;101074.28;;;11.51;100.00
71465;BME280;59274;49.874;9.154;2023-02-17T11:20:35;101071.97;;;11.53;100.00
71465;BME280;59274;49.874;9.154;2023-02-17T11:23:05;101063.56;;;11.58;100.00
71465;BME280;59274;49.874;9.154;2023-02-17T11:25:34;101068.06;;;11.50;100.00
71465;BME280;59274;49.874;9.154;2023-02-17T11:28:06;101066.75;;;11.44;100.00
71465;BME280;59274;49.874;9.154;2023-02-17T11:30:34;101057.97;;;11.51;100.00
71465;BME280;59274;49.874;9.154;2023-02-17T11:33:11;101050.84;;;11.65;100.00
71465;BME280;59274;49.874;9.154;2023-02-17T11:40:40;101057.38;;;11.99;100.00
71465;BME280;59274;49.874;9.154;2023-02-17T11:43:06;101047.63;;;11.98;99.89
71465;BME280;59274;49.874;9.154;2023-02-17T11:48:39;101049.16;;;11.76;100.00
71465;BME280;59274;49.874;9.154;2023-02-17T11:51:22;101060.09;;;11.80;100.00
71465;BME280;59274;49.874;9.154;2023-02-17T11:56:29;101046.81;;;11.75;100.00
71465;BME280;59274;49.874;9.154;2023-02-17T11:59:10;101049.34;;;11.87;100.00
71465;BME280;59274;49.874;9.154;2023-02-17T12:02:05;101052.81;;;11.84;100.00
71465;BME280;59274;49.874;9.154;2023-02-17T12:04:50;101067.00;;;11.74;100.00
71465;BME280;59274;49.874;9.154;2023-02-17T12:10:13;101060.06;;;11.76;100.00
71465;BME280;59274;49.874;9.154;2023-02-17T12:17:49;101044.00;;;11.91;100.00
71465;BME280;59274;49.874;9.154;2023-02-17T12:36:14;101023.97;;;12.02;100.00
71465;BME280;59274;49.874;9.154;2023-02-17T12:38:46;101025.28;;;11.89;100.00
71465;BME280;59274;49.874;9.154;2023-02-17T12:41:26;101029.00;;;12.00;100.00
71465;BME280;59274;49.874;9.154;2023-02-17T12:44:01;101024.28;;;11.97;100.00
71465;BME280;59274;49.874;9.154;2023-02-17T12:49:11;101026.78;;;12.29;98.83
71465;BME280;59274;49.874;9.154;2023-02-17T12:51:54;101011.84;;;12.45;98.82
71465;BME280;59274;49.874;9.154;2023-02-17T12:54:32;101002.28;;;12.55;97.97
71465;BME280;59274;49.874;9.154;2023-02-17T12:57:14;101007.38;;;12.57;97.42
71465;BME280;59274;49.874;9.154;2023-02-17T12:59:49;100994.56;;;12.61;96.52
71465;BME280;59274;49.874;9.154;2023-02-17T13:02:20;100995.47;;;12.68;96.62
71465;BME280;59274;49.874;9.154;2023-02-17T13:04:50;100978.38;;;13.01;95.67
71465;BME280;59274;49.874;9.154;2023-02-17T13:09:46;100985.59;;;13.13;94.02
71465;BME280;59274;49.874;9.154;2023-02-17T13:14:51;100989.13;;;13.17;93.83
71465;BME280;59274;49.874;9.154;2023-02-17T13:17:34;100992.47;;;12.77;94.49
71465;BME280;59274;49.874;9.154;2023-02-17T13:22:36;100986.47;;;12.64;97.24
71465;BME280;59274;49.874;9.154;2023-02-17T13:25:02;100988.22;;;12.79;95.98
71465;BME280;59274;49.874;9.154;2023-02-17T13:32:28;100969.88;;;12.76;95.04
71465;BME280;59274;49.874;9.154;2023-02-17T13:37:52;100986.84;;;12.66;96.55
71465;BME280;59274;49.874;9.154;2023-02-17T13:42:48;100982.97;;;12.67;96.65
71465;BME280;59274;49.874;9.154;2023-02-17T13:45:22;100992.09;;;12.52;97.08
71465;BME280;59274;49.874;9.154;2023-02-17T13:47:50;100980.31;;;12.44;97.87
71465;BME280;59274;49.874;9.154;2023-02-17T13:50:37;100968.50;;;12.37;98.43
71465;BME280;59274;49.874;9.154;2023-02-17T13:53:23;100963.69;;;12.27;98.48
71465;BME280;59274;49.874;9.154;2023-02-17T13:55:49;100968.72;;;12.25;99.12
71465;BME280;59274;49.874;9.154;2023-02-17T13:58:20;100970.63;;;12.21;99.53
71465;BME280;59274;49.874;9.154;2023-02-17T14:00:47;100969.56;;;12.29;99.20
71465;BME280;59274;49.874;9.154;2023-02-17T14:03:28;100962.84;;;12.23;99.45
71465;BME280;59274;49.874;9.154;2023-02-17T14:05:56;100946.50;;;12.23;99.49
71465;BME280;59274;49.874;9.154;2023-02-17T14:08:34;100938.22;;;12.15;100.00
71465;BME280;59274;49.874;9.154;2023-02-17T14:11:10;100940.94;;;12.15;100.00
71465;BME280;59274;49.874;9.154;2023-02-17T14:13:39;100937.50;;;12.19;100.00
71465;BME280;59274;49.874;9.154;2023-02-17T14:16:06;100946.03;;;12.17;100.00
71465;BME280;59274;49.874;9.154;2023-02-17T14:21:07;100957.81;;;12.25;99.90
71465;BME280;59274;49.874;9.154;2023-02-17T14:28:55;100964.53;;;12.31;99.20
71465;BME280;59274;49.874;9.154;2023-02-17T14:31:21;100957.63;;;12.37;99.16
71465;BME280;59274;49.874;9.154;2023-02-17T14:33:54;100952.28;;;12.44;98.23
71465;BME280;59274;49.874;9.154;2023-02-17T14:36:34;100955.84;;;12.48;98.46
71465;BME280;59274;49.874;9.154;2023-02-17T14:39:02;100943.69;;;12.42;98.31
71465;BME280;59274;49.874;9.154;2023-02-17T14:41:28;100941.44;;;12.47;98.10